sensor_id;sensor_type;location;lat;lon;timestamp;temperature;humidity
68235;DHT22;55052;52.056;5.296;2024-01-27T00:02:09;3.40;94.40
68235;DHT22;55052;52.056;5.296;2024-01-27T00:04:36;3.40;94.50
68235;DHT22;55052;52.056;5.296;2024-01-27T00:07:06;3.40;94.50
68235;DHT22;55052;52.056;5.296;2024-01-27T00:09:33;3.40;94.50
68235;DHT22;55052;52.056;5.296;2024-01-27T00:12:00;3.40;94.50
68235;DHT22;55052;52.056;5.296;2024-01-27T00:14:27;3.40;94.50
68235;DHT22;55052;52.056;5.296;2024-01-27T00:16:54;3.40;94.50
68235;DHT22;55052;52.056;5.296;2024-01-27T00:19:21;3.30;94.50
68235;DHT22;55052;52.056;5.296;2024-01-27T00:21:48;3.30;94.50
68235;DHT22;55052;52.056;5.296;2024-01-27T00:24:15;3.30;94.50
68235;DHT22;55052;52.056;5.296;2024-01-27T00:26:43;3.30;94.50
68235;DHT22;55052;52.056;5.296;2024-01-27T00:29:10;3.30;94.60
68235;DHT22;55052;52.056;5.296;2024-01-27T00:31:37;3.20;94.50
68235;DHT22;55052;52.056;5.296;2024-01-27T00:34:04;3.20;94.50
68235;DHT22;55052;52.056;5.296;2024-01-27T00:36:31;3.20;94.50
68235;DHT22;55052;52.056;5.296;2024-01-27T00:38:58;3.20;94.50
68235;DHT22;55052;52.056;5.296;2024-01-27T00:41:25;3.20;94.50
68235;DHT22;55052;52.056;5.296;2024-01-27T00:43:52;3.10;94.60
68235;DHT22;55052;52.056;5.296;2024-01-27T00:46:18;3.10;94.60
68235;DHT22;55052;52.056;5.296;2024-01-27T00:48:45;3.10;94.60
68235;DHT22;55052;52.056;5.296;2024-01-27T00:51:13;3.00;94.60
68235;DHT22;55052;52.056;5.296;2024-01-27T00:53:40;3.00;94.60
68235;DHT22;55052;52.056;5.296;2024-01-27T00:56:07;3.00;94.60
68235;DHT22;55052;52.056;5.296;2024-01-27T00:58:34;3.00;94.60
68235;DHT22;55052;52.056;5.296;2024-01-27T01:01:01;3.00;94.60
68235;DHT22;55052;52.056;5.296;2024-01-27T01:03:28;3.00;94.70
68235;DHT22;55052;52.056;5.296;2024-01-27T01:05:55;2.90;94.60
68235;DHT22;55052;52.056;5.296;2024-01-27T01:08:22;3.00;94.70
68235;DHT22;55052;52.056;5.296;2024-01-27T01:10:49;2.90;94.70
68235;DHT22;55052;52.056;5.296;2024-01-27T01:13:16;2.90;94.70
68235;DHT22;55052;52.056;5.296;2024-01-27T01:15:43;2.90;94.70
68235;DHT22;55052;52.056;5.296;2024-01-27T01:18:10;2.90;94.70
68235;DHT22;55052;52.056;5.296;2024-01-27T01:20:37;2.90;94.70
68235;DHT22;55052;52.056;5.296;2024-01-27T01:23:03;2.80;94.70
68235;DHT22;55052;52.056;5.296;2024-01-27T01:25:30;2.90;94.70
68235;DHT22;55052;52.056;5.296;2024-01-27T01:27:57;2.80;94.70
68235;DHT22;55052;52.056;5.296;2024-01-27T01:30:24;2.80;95.00
68235;DHT22;55052;52.056;5.296;2024-01-27T01:32:51;2.80;94.70
68235;DHT22;55052;52.056;5.296;2024-01-27T01:35:18;2.80;94.70
68235;DHT22;55052;52.056;5.296;2024-01-27T01:37:45;2.70;94.70
68235;DHT22;55052;52.056;5.296;2024-01-27T01:40:14;2.70;94.70
68235;DHT22;55052;52.056;5.296;2024-01-27T01:42:42;2.70;94.70
68235;DHT22;55052;52.056;5.296;2024-01-27T01:45:11;2.70;94.70
68235;DHT22;55052;52.056;5.296;2024-01-27T01:47:39;2.70;94.70
68235;DHT22;55052;52.056;5.296;2024-01-27T01:50:06;2.60;94.70
68235;DHT22;55052;52.056;5.296;2024-01-27T01:52:33;2.60;94.70
68235;DHT22;55052;52.056;5.296;2024-01-27T01:55:00;2.60;94.70
68235;DHT22;55052;52.056;5.296;2024-01-27T01:57:28;2.60;95.10
68235;DHT22;55052;52.056;5.296;2024-01-27T01:59:55;2.60;94.70
68235;DHT22;55052;52.056;5.296;2024-01-27T02:02:22;2.60;94.80
68235;DHT22;55052;52.056;5.296;2024-01-27T02:04:48;2.50;94.70
68235;DHT22;55052;52.056;5.296;2024-01-27T02:07:15;2.50;94.80
68235;DHT22;55052;52.056;5.296;2024-01-27T02:09:42;2.50;95.10
68235;DHT22;55052;52.056;5.296;2024-01-27T02:12:10;2.50;94.80
68235;DHT22;55052;52.056;5.296;2024-01-27T02:14:37;2.50;94.80
68235;DHT22;55052;52.056;5.296;2024-01-27T02:17:04;2.50;94.80
68235;DHT22;55052;52.056;5.296;2024-01-27T02:19:31;2.50;94.80
68235;DHT22;55052;52.056;5.296;2024-01-27T02:21:58;2.40;94.80
68235;DHT22;55052;52.056;5.296;2024-01-27T02:24:25;2.40;94.80
68235;DHT22;55052;52.056;5.296;2024-01-27T02:26:52;2.40;94.80
68235;DHT22;55052;52.056;5.296;2024-01-27T02:29:18;2.40;94.80
68235;DHT22;55052;52.056;5.296;2024-01-27T02:31:46;2.40;94.80
68235;DHT22;55052;52.056;5.296;2024-01-27T02:34:13;2.40;94.80
68235;DHT22;55052;52.056;5.296;2024-01-27T02:36:40;2.40;94.90
68235;DHT22;55052;52.056;5.296;2024-01-27T02:39:06;2.40;94.90
68235;DHT22;55052;52.056;5.296;2024-01-27T02:41:34;2.40;94.90
68235;DHT22;55052;52.056;5.296;2024-01-27T02:44:05;2.40;94.90
68235;DHT22;55052;52.056;5.296;2024-01-27T02:46:32;2.30;94.90
68235;DHT22;55052;52.056;5.296;2024-01-27T02:48:59;2.30;94.90
68235;DHT22;55052;52.056;5.296;2024-01-27T02:51:26;2.30;94.90
68235;DHT22;55052;52.056;5.296;2024-01-27T02:53:53;2.30;94.90
68235;DHT22;55052;52.056;5.296;2024-01-27T02:56:20;2.30;94.90
68235;DHT22;55052;52.056;5.296;2024-01-27T02:58:46;2.30;94.90
68235;DHT22;55052;52.056;5.296;2024-01-27T03:01:13;2.30;94.90
68235;DHT22;55052;52.056;5.296;2024-01-27T03:03:40;2.30;94.90
68235;DHT22;55052;52.056;5.296;2024-01-27T03:06:08;2.30;95.00
68235;DHT22;55052;52.056;5.296;2024-01-27T03:08:35;2.30;95.00
68235;DHT22;55052;52.056;5.296;2024-01-27T03:11:01;2.20;94.90
68235;DHT22;55052;52.056;5.296;2024-01-27T03:13:28;2.20;94.90
68235;DHT22;55052;52.056;5.296;2024-01-27T03:15:55;2.20;95.00
68235;DHT22;55052;52.056;5.296;2024-01-27T03:18:22;2.20;95.00
68235;DHT22;55052;52.056;5.296;2024-01-27T03:20:51;2.20;95.00
68235;DHT22;55052;52.056;5.296;2024-01-27T03:23:18;2.20;95.00
68235;DHT22;55052;52.056;5.296;2024-01-27T03:25:45;2.20;95.00
68235;DHT22;55052;52.056;5.296;2024-01-27T03:28:12;2.20;95.00
68235;DHT22;55052;52.056;5.296;2024-01-27T03:30:39;2.20;95.00
68235;DHT22;55052;52.056;5.296;2024-01-27T03:33:06;2.20;95.10
68235;DHT22;55052;52.056;5.296;2024-01-27T03:35:37;2.20;95.10
68235;DHT22;55052;52.056;5.296;2024-01-27T03:38:05;2.20;95.10
68235;DHT22;55052;52.056;5.296;2024-01-27T03:40:32;2.20;95.10
68235;DHT22;55052;52.056;5.296;2024-01-27T03:42:59;2.20;95.10
68235;DHT22;55052;52.056;5.296;2024-01-27T03:45:25;2.20;95.10
68235;DHT22;55052;52.056;5.296;2024-01-27T03:47:52;2.20;95.10
68235;DHT22;55052;52.056;5.296;2024-01-27T03:50:20;2.20;95.10
68235;DHT22;55052;52.056;5.296;2024-01-27T03:52:46;2.20;95.10
68235;DHT22;55052;52.056;5.296;2024-01-27T03:55:13;2.10;95.10
68235;DHT22;55052;52.056;5.296;2024-01-27T03:57:40;2.10;95.20
68235;DHT22;55052;52.056;5.296;2024-01-27T04:00:07;2.20;95.20
68235;DHT22;55052;52.056;5.296;2024-01-27T04:02:34;2.20;95.20
68235;DHT22;55052;52.056;5.296;2024-01-27T04:05:01;2.10;95.20
68235;DHT22;55052;52.056;5.296;2024-01-27T04:07:28;2.10;95.20
68235;DHT22;55052;52.056;5.296;2024-01-27T04:09:55;2.10;95.20
68235;DHT22;55052;52.056;5.296;2024-01-27T04:12:22;2.10;95.20
68235;DHT22;55052;52.056;5.296;2024-01-27T04:14:49;2.10;95.20
68235;DHT22;55052;52.056;5.296;2024-01-27T04:17:16;2.10;95.20
68235;DHT22;55052;52.056;5.296;2024-01-27T04:19:43;2.10;95.20
68235;DHT22;55052;52.056;5.296;2024-01-27T04:22:10;2.10;95.30
68235;DHT22;55052;52.056;5.296;2024-01-27T04:24:37;2.10;95.30
68235;DHT22;55052;52.056;5.296;2024-01-27T04:27:04;2.10;95.30
68235;DHT22;55052;52.056;5.296;2024-01-27T04:29:31;2.10;95.30
68235;DHT22;55052;52.056;5.296;2024-01-27T04:31:58;2.10;95.30
68235;DHT22;55052;52.056;5.296;2024-01-27T04:34:24;2.00;95.30
68235;DHT22;55052;52.056;5.296;2024-01-27T04:36:51;2.00;95.30
68235;DHT22;55052;52.056;5.296;2024-01-27T04:39:19;2.00;95.30
68235;DHT22;55052;52.056;5.296;2024-01-27T04:41:45;2.10;95.30
68235;DHT22;55052;52.056;5.296;2024-01-27T04:44:12;2.00;95.30
68235;DHT22;55052;52.056;5.296;2024-01-27T04:46:39;2.00;95.30
68235;DHT22;55052;52.056;5.296;2024-01-27T04:49:06;2.00;95.30
68235;DHT22;55052;52.056;5.296;2024-01-27T04:51:33;2.00;95.30
68235;DHT22;55052;52.056;5.296;2024-01-27T04:54:00;2.00;95.30
68235;DHT22;55052;52.056;5.296;2024-01-27T04:56:27;2.00;95.30
68235;DHT22;55052;52.056;5.296;2024-01-27T04:58:53;1.90;95.30
68235;DHT22;55052;52.056;5.296;2024-01-27T05:01:20;1.90;95.30
68235;DHT22;55052;52.056;5.296;2024-01-27T05:03:47;1.90;95.30
68235;DHT22;55052;52.056;5.296;2024-01-27T05:06:14;1.90;95.30
68235;DHT22;55052;52.056;5.296;2024-01-27T05:08:41;1.90;95.70
68235;DHT22;55052;52.056;5.296;2024-01-27T05:11:09;1.90;95.40
68235;DHT22;55052;52.056;5.296;2024-01-27T05:13:35;1.90;95.40
68235;DHT22;55052;52.056;5.296;2024-01-27T05:16:04;1.90;95.40
68235;DHT22;55052;52.056;5.296;2024-01-27T05:18:31;1.90;95.40
68235;DHT22;55052;52.056;5.296;2024-01-27T05:20:58;1.90;95.40
68235;DHT22;55052;52.056;5.296;2024-01-27T05:23:25;1.90;95.40
68235;DHT22;55052;52.056;5.296;2024-01-27T05:25:52;1.90;95.40
68235;DHT22;55052;52.056;5.296;2024-01-27T05:28:19;1.80;95.40
68235;DHT22;55052;52.056;5.296;2024-01-27T05:30:47;1.80;95.40
68235;DHT22;55052;52.056;5.296;2024-01-27T05:33:14;1.80;95.40
68235;DHT22;55052;52.056;5.296;2024-01-27T05:35:41;1.80;95.40
68235;DHT22;55052;52.056;5.296;2024-01-27T05:38:08;1.80;95.50
68235;DHT22;55052;52.056;5.296;2024-01-27T05:40:35;1.80;95.50
68235;DHT22;55052;52.056;5.296;2024-01-27T05:43:05;1.80;95.50
68235;DHT22;55052;52.056;5.296;2024-01-27T05:45:32;1.80;95.50
68235;DHT22;55052;52.056;5.296;2024-01-27T05:47:59;1.80;95.50
68235;DHT22;55052;52.056;5.296;2024-01-27T05:50:26;1.80;95.50
68235;DHT22;55052;52.056;5.296;2024-01-27T05:52:53;1.80;95.50
68235;DHT22;55052;52.056;5.296;2024-01-27T05:55:20;1.80;95.50
68235;DHT22;55052;52.056;5.296;2024-01-27T05:57:47;1.80;95.50
68235;DHT22;55052;52.056;5.296;2024-01-27T06:00:14;1.70;95.50
68235;DHT22;55052;52.056;5.296;2024-01-27T06:02:40;1.70;95.50
68235;DHT22;55052;52.056;5.296;2024-01-27T06:05:07;1.70;95.50
68235;DHT22;55052;52.056;5.296;2024-01-27T06:07:38;1.70;95.50
68235;DHT22;55052;52.056;5.296;2024-01-27T06:10:08;1.70;95.50
68235;DHT22;55052;52.056;5.296;2024-01-27T06:12:35;1.70;95.50
68235;DHT22;55052;52.056;5.296;2024-01-27T06:15:03;1.70;95.50
68235;DHT22;55052;52.056;5.296;2024-01-27T06:17:30;1.70;95.60
68235;DHT22;55052;52.056;5.296;2024-01-27T06:19:56;1.70;95.60
68235;DHT22;55052;52.056;5.296;2024-01-27T06:22:23;1.70;95.60
68235;DHT22;55052;52.056;5.296;2024-01-27T06:24:50;1.70;95.60
68235;DHT22;55052;52.056;5.296;2024-01-27T06:27:18;1.70;95.60
68235;DHT22;55052;52.056;5.296;2024-01-27T06:29:44;1.70;95.60
68235;DHT22;55052;52.056;5.296;2024-01-27T06:32:11;1.70;96.00
68235;DHT22;55052;52.056;5.296;2024-01-27T06:34:39;1.60;95.60
68235;DHT22;55052;52.056;5.296;2024-01-27T06:37:06;1.70;95.60
68235;DHT22;55052;52.056;5.296;2024-01-27T06:39:33;1.70;95.60
68235;DHT22;55052;52.056;5.296;2024-01-27T06:42:00;1.70;95.60
68235;DHT22;55052;52.056;5.296;2024-01-27T06:44:26;1.60;95.60
68235;DHT22;55052;52.056;5.296;2024-01-27T06:46:53;1.70;95.60
68235;DHT22;55052;52.056;5.296;2024-01-27T06:49:20;1.60;95.60
68235;DHT22;55052;52.056;5.296;2024-01-27T06:51:47;1.60;95.60
68235;DHT22;55052;52.056;5.296;2024-01-27T06:54:14;1.60;95.60
68235;DHT22;55052;52.056;5.296;2024-01-27T06:56:41;1.60;95.60
68235;DHT22;55052;52.056;5.296;2024-01-27T06:59:08;1.60;95.60
68235;DHT22;55052;52.056;5.296;2024-01-27T07:01:35;1.60;95.60
68235;DHT22;55052;52.056;5.296;2024-01-27T07:04:02;1.60;95.60
68235;DHT22;55052;52.056;5.296;2024-01-27T07:06:29;1.60;95.60
68235;DHT22;55052;52.056;5.296;2024-01-27T07:08:56;1.50;95.60
68235;DHT22;55052;52.056;5.296;2024-01-27T07:11:23;1.50;95.60
68235;DHT22;55052;52.056;5.296;2024-01-27T07:13:50;1.50;95.60
68235;DHT22;55052;52.056;5.296;2024-01-27T07:16:16;1.50;95.70
68235;DHT22;55052;52.056;5.296;2024-01-27T07:18:43;1.50;95.60
68235;DHT22;55052;52.056;5.296;2024-01-27T07:21:15;1.50;95.70
68235;DHT22;55052;52.056;5.296;2024-01-27T07:23:43;1.50;95.70
68235;DHT22;55052;52.056;5.296;2024-01-27T07:26:10;1.50;95.70
68235;DHT22;55052;52.056;5.296;2024-01-27T07:28:38;1.50;95.70
68235;DHT22;55052;52.056;5.296;2024-01-27T07:31:05;1.50;95.70
68235;DHT22;55052;52.056;5.296;2024-01-27T07:33:32;1.50;95.70
68235;DHT22;55052;52.056;5.296;2024-01-27T07:35:59;1.50;95.70
68235;DHT22;55052;52.056;5.296;2024-01-27T07:38:26;1.50;95.70
68235;DHT22;55052;52.056;5.296;2024-01-27T07:40:53;1.40;95.70
68235;DHT22;55052;52.056;5.296;2024-01-27T07:43:20;1.50;95.70
68235;DHT22;55052;52.056;5.296;2024-01-27T07:45:47;1.50;95.70
68235;DHT22;55052;52.056;5.296;2024-01-27T07:48:14;1.40;95.70
68235;DHT22;55052;52.056;5.296;2024-01-27T07:50:41;1.40;95.70
68235;DHT22;55052;52.056;5.296;2024-01-27T07:53:12;1.40;95.70
68235;DHT22;55052;52.056;5.296;2024-01-27T07:55:39;1.40;95.80
68235;DHT22;55052;52.056;5.296;2024-01-27T07:58:06;1.40;95.70
68235;DHT22;55052;52.056;5.296;2024-01-27T08:00:33;1.30;95.80
68235;DHT22;55052;52.056;5.296;2024-01-27T08:03:00;1.50;95.80
68235;DHT22;55052;52.056;5.296;2024-01-27T08:05:26;1.50;95.80
68235;DHT22;55052;52.056;5.296;2024-01-27T08:07:54;1.40;95.80
68235;DHT22;55052;52.056;5.296;2024-01-27T08:10:22;1.50;95.90
68235;DHT22;55052;52.056;5.296;2024-01-27T08:12:49;1.50;95.90
68235;DHT22;55052;52.056;5.296;2024-01-27T08:15:16;1.50;95.90
68235;DHT22;55052;52.056;5.296;2024-01-27T08:17:43;1.50;95.90
68235;DHT22;55052;52.056;5.296;2024-01-27T08:20:10;1.50;95.90
68235;DHT22;55052;52.056;5.296;2024-01-27T08:22:37;1.50;95.90
68235;DHT22;55052;52.056;5.296;2024-01-27T08:25:04;1.50;95.90
68235;DHT22;55052;52.056;5.296;2024-01-27T08:27:31;1.50;95.90
68235;DHT22;55052;52.056;5.296;2024-01-27T08:29:58;1.60;96.00
68235;DHT22;55052;52.056;5.296;2024-01-27T08:32:24;1.60;96.00
68235;DHT22;55052;52.056;5.296;2024-01-27T08:34:51;1.60;96.00
68235;DHT22;55052;52.056;5.296;2024-01-27T08:37:19;1.60;96.00
68235;DHT22;55052;52.056;5.296;2024-01-27T08:39:46;1.60;96.00
68235;DHT22;55052;52.056;5.296;2024-01-27T08:42:13;1.70;96.10
68235;DHT22;55052;52.056;5.296;2024-01-27T08:44:40;1.70;96.10
68235;DHT22;55052;52.056;5.296;2024-01-27T08:47:07;1.70;96.10
68235;DHT22;55052;52.056;5.296;2024-01-27T08:49:34;1.80;96.20
68235;DHT22;55052;52.056;5.296;2024-01-27T08:52:02;1.80;96.20
68235;DHT22;55052;52.056;5.296;2024-01-27T08:54:28;1.80;96.20
68235;DHT22;55052;52.056;5.296;2024-01-27T08:56:55;1.90;96.20
68235;DHT22;55052;52.056;5.296;2024-01-27T08:59:22;1.90;96.20
68235;DHT22;55052;52.056;5.296;2024-01-27T09:01:49;1.90;96.30
68235;DHT22;55052;52.056;5.296;2024-01-27T09:04:16;2.00;96.30
68235;DHT22;55052;52.056;5.296;2024-01-27T09:06:43;2.00;96.30
68235;DHT22;55052;52.056;5.296;2024-01-27T09:09:10;2.10;96.30
68235;DHT22;55052;52.056;5.296;2024-01-27T09:11:38;2.10;96.40
68235;DHT22;55052;52.056;5.296;2024-01-27T09:14:05;2.20;96.40
68235;DHT22;55052;52.056;5.296;2024-01-27T09:16:33;2.20;96.40
68235;DHT22;55052;52.056;5.296;2024-01-27T09:19:01;2.30;96.50
68235;DHT22;55052;52.056;5.296;2024-01-27T09:21:28;2.30;96.50
68235;DHT22;55052;52.056;5.296;2024-01-27T09:23:58;2.40;96.60
68235;DHT22;55052;52.056;5.296;2024-01-27T09:26:25;2.40;96.60
68235;DHT22;55052;52.056;5.296;2024-01-27T09:28:52;2.50;96.60
68235;DHT22;55052;52.056;5.296;2024-01-27T09:31:23;2.60;96.70
68235;DHT22;55052;52.056;5.296;2024-01-27T09:33:51;2.70;96.70
68235;DHT22;55052;52.056;5.296;2024-01-27T09:36:19;2.80;96.80
68235;DHT22;55052;52.056;5.296;2024-01-27T09:38:47;2.80;96.90
68235;DHT22;55052;52.056;5.296;2024-01-27T09:41:14;2.90;96.90
68235;DHT22;55052;52.056;5.296;2024-01-27T09:43:45;3.00;97.00
68235;DHT22;55052;52.056;5.296;2024-01-27T09:46:13;3.10;97.00
68235;DHT22;55052;52.056;5.296;2024-01-27T09:48:40;3.20;97.10
68235;DHT22;55052;52.056;5.296;2024-01-27T09:51:09;3.20;97.10
68235;DHT22;55052;52.056;5.296;2024-01-27T09:53:37;3.30;97.20
68235;DHT22;55052;52.056;5.296;2024-01-27T09:56:04;3.40;97.20
68235;DHT22;55052;52.056;5.296;2024-01-27T09:58:32;3.50;97.30
68235;DHT22;55052;52.056;5.296;2024-01-27T10:01:00;3.60;97.30
68235;DHT22;55052;52.056;5.296;2024-01-27T10:03:28;3.60;97.40
68235;DHT22;55052;52.056;5.296;2024-01-27T10:05:56;3.80;97.40
68235;DHT22;55052;52.056;5.296;2024-01-27T10:08:23;3.80;97.50
68235;DHT22;55052;52.056;5.296;2024-01-27T10:10:54;3.90;97.50
68235;DHT22;55052;52.056;5.296;2024-01-27T10:13:21;4.00;97.70
68235;DHT22;55052;52.056;5.296;2024-01-27T10:18:29;4.20;97.80
68235;DHT22;55052;52.056;5.296;2024-01-27T10:20:56;4.30;97.80
68235;DHT22;55052;52.056;5.296;2024-01-27T10:23:24;4.40;97.90
68235;DHT22;55052;52.056;5.296;2024-01-27T10:25:51;4.50;97.90
68235;DHT22;55052;52.056;5.296;2024-01-27T10:28:22;4.60;97.90
68235;DHT22;55052;52.056;5.296;2024-01-27T10:30:50;4.70;98.40
68235;DHT22;55052;52.056;5.296;2024-01-27T10:33:17;4.80;98.00
68235;DHT22;55052;52.056;5.296;2024-01-27T10:35:44;4.80;98.10
68235;DHT22;55052;52.056;5.296;2024-01-27T10:38:11;4.90;98.10
68235;DHT22;55052;52.056;5.296;2024-01-27T10:40:38;5.00;98.20
68235;DHT22;55052;52.056;5.296;2024-01-27T10:43:06;5.10;98.20
68235;DHT22;55052;52.056;5.296;2024-01-27T10:45:40;5.10;98.20
68235;DHT22;55052;52.056;5.296;2024-01-27T10:48:09;5.20;98.30
68235;DHT22;55052;52.056;5.296;2024-01-27T10:50:40;5.30;98.30
68235;DHT22;55052;52.056;5.296;2024-01-27T10:53:22;5.40;98.30
68235;DHT22;55052;52.056;5.296;2024-01-27T10:55:53;5.50;98.40
68235;DHT22;55052;52.056;5.296;2024-01-27T10:58:23;5.50;98.40
68235;DHT22;55052;52.056;5.296;2024-01-27T11:00:52;5.60;98.40
68235;DHT22;55052;52.056;5.296;2024-01-27T11:03:21;5.70;98.50
68235;DHT22;55052;52.056;5.296;2024-01-27T11:05:50;5.70;98.50
68235;DHT22;55052;52.056;5.296;2024-01-27T11:08:18;5.80;98.50
68235;DHT22;55052;52.056;5.296;2024-01-27T11:10:46;5.90;98.50
68235;DHT22;55052;52.056;5.296;2024-01-27T11:13:13;6.00;98.60
68235;DHT22;55052;52.056;5.296;2024-01-27T11:15:51;6.00;98.60
68235;DHT22;55052;52.056;5.296;2024-01-27T11:18:19;6.10;98.60
68235;DHT22;55052;52.056;5.296;2024-01-27T11:20:46;6.20;98.60
68235;DHT22;55052;52.056;5.296;2024-01-27T11:23:13;6.20;98.60
68235;DHT22;55052;52.056;5.296;2024-01-27T11:25:43;6.30;98.60
68235;DHT22;55052;52.056;5.296;2024-01-27T11:28:14;6.30;98.60
68235;DHT22;55052;52.056;5.296;2024-01-27T11:30:48;6.40;98.60
68235;DHT22;55052;52.056;5.296;2024-01-27T11:33:15;6.50;98.70
68235;DHT22;55052;52.056;5.296;2024-01-27T11:35:42;6.60;98.70
68235;DHT22;55052;52.056;5.296;2024-01-27T11:38:09;6.60;98.60
68235;DHT22;55052;52.056;5.296;2024-01-27T11:40:47;6.70;98.70
68235;DHT22;55052;52.056;5.296;2024-01-27T11:43:13;6.80;98.60
68235;DHT22;55052;52.056;5.296;2024-01-27T11:45:41;6.80;98.60
68235;DHT22;55052;52.056;5.296;2024-01-27T11:48:08;6.90;98.50
68235;DHT22;55052;52.056;5.296;2024-01-27T11:50:35;6.90;98.50
68235;DHT22;55052;52.056;5.296;2024-01-27T11:53:02;6.90;98.50
68235;DHT22;55052;52.056;5.296;2024-01-27T11:55:29;7.00;98.40
68235;DHT22;55052;52.056;5.296;2024-01-27T11:57:56;7.10;98.40
68235;DHT22;55052;52.056;5.296;2024-01-27T12:00:22;7.10;98.40
68235;DHT22;55052;52.056;5.296;2024-01-27T12:02:50;7.20;98.60
68235;DHT22;55052;52.056;5.296;2024-01-27T12:05:18;7.20;98.20
68235;DHT22;55052;52.056;5.296;2024-01-27T12:07:45;7.30;98.20
68235;DHT22;55052;52.056;5.296;2024-01-27T12:10:12;7.30;98.10
68235;DHT22;55052;52.056;5.296;2024-01-27T12:12:39;7.30;98.00
68235;DHT22;55052;52.056;5.296;2024-01-27T12:15:06;7.40;98.00
68235;DHT22;55052;52.056;5.296;2024-01-27T12:17:33;7.50;97.90
68235;DHT22;55052;52.056;5.296;2024-01-27T12:20:01;7.50;98.20
68235;DHT22;55052;52.056;5.296;2024-01-27T12:22:30;7.50;97.80
68235;DHT22;55052;52.056;5.296;2024-01-27T12:25:08;7.60;97.70
68235;DHT22;55052;52.056;5.296;2024-01-27T12:27:36;7.60;97.60
68235;DHT22;55052;52.056;5.296;2024-01-27T12:30:03;7.70;97.60
68235;DHT22;55052;52.056;5.296;2024-01-27T12:32:31;7.70;97.60
68235;DHT22;55052;52.056;5.296;2024-01-27T12:34:58;7.70;97.50
68235;DHT22;55052;52.056;5.296;2024-01-27T12:37:30;7.80;97.50
68235;DHT22;55052;52.056;5.296;2024-01-27T12:39:57;7.80;97.50
68235;DHT22;55052;52.056;5.296;2024-01-27T12:42:24;7.90;97.50
68235;DHT22;55052;52.056;5.296;2024-01-27T12:44:51;7.90;97.80
68235;DHT22;55052;52.056;5.296;2024-01-27T12:47:18;7.90;97.30
68235;DHT22;55052;52.056;5.296;2024-01-27T12:49:46;8.00;97.30
68235;DHT22;55052;52.056;5.296;2024-01-27T12:52:13;8.00;97.10
68235;DHT22;55052;52.056;5.296;2024-01-27T12:54:40;8.00;97.00
68235;DHT22;55052;52.056;5.296;2024-01-27T12:57:07;8.10;96.90
68235;DHT22;55052;52.056;5.296;2024-01-27T12:59:35;8.10;96.80
68235;DHT22;55052;52.056;5.296;2024-01-27T13:02:02;8.10;96.70
68235;DHT22;55052;52.056;5.296;2024-01-27T13:04:29;8.20;96.70
68235;DHT22;55052;52.056;5.296;2024-01-27T13:06:56;8.20;96.70
68235;DHT22;55052;52.056;5.296;2024-01-27T13:09:23;8.20;96.60
68235;DHT22;55052;52.056;5.296;2024-01-27T13:11:50;8.20;96.50
68235;DHT22;55052;52.056;5.296;2024-01-27T13:14:17;8.20;96.30
68235;DHT22;55052;52.056;5.296;2024-01-27T13:16:46;8.30;96.20
68235;DHT22;55052;52.056;5.296;2024-01-27T13:19:13;8.30;96.20
68235;DHT22;55052;52.056;5.296;2024-01-27T13:21:40;8.30;96.20
68235;DHT22;55052;52.056;5.296;2024-01-27T13:24:07;8.30;96.10
68235;DHT22;55052;52.056;5.296;2024-01-27T13:26:35;8.40;96.10
68235;DHT22;55052;52.056;5.296;2024-01-27T13:29:05;8.40;96.20
68235;DHT22;55052;52.056;5.296;2024-01-27T13:31:33;8.40;96.10
68235;DHT22;55052;52.056;5.296;2024-01-27T13:34:00;8.40;96.10
68235;DHT22;55052;52.056;5.296;2024-01-27T13:36:28;8.50;96.10
68235;DHT22;55052;52.056;5.296;2024-01-27T13:38:56;8.50;96.10
68235;DHT22;55052;52.056;5.296;2024-01-27T13:41:23;8.50;96.10
68235;DHT22;55052;52.056;5.296;2024-01-27T13:43:50;8.50;96.10
68235;DHT22;55052;52.056;5.296;2024-01-27T13:46:17;8.50;96.10
68235;DHT22;55052;52.056;5.296;2024-01-27T13:48:44;8.50;96.00
68235;DHT22;55052;52.056;5.296;2024-01-27T13:51:11;8.50;96.10
68235;DHT22;55052;52.056;5.296;2024-01-27T13:53:38;8.60;96.10
68235;DHT22;55052;52.056;5.296;2024-01-27T13:56:13;8.60;96.00
68235;DHT22;55052;52.056;5.296;2024-01-27T13:58:41;8.60;96.00
68235;DHT22;55052;52.056;5.296;2024-01-27T14:01:08;8.60;96.00
68235;DHT22;55052;52.056;5.296;2024-01-27T14:03:35;8.60;95.90
68235;DHT22;55052;52.056;5.296;2024-01-27T14:06:05;8.60;95.90
68235;DHT22;55052;52.056;5.296;2024-01-27T14:08:32;8.60;95.90
68235;DHT22;55052;52.056;5.296;2024-01-27T14:10:59;8.60;95.90
68235;DHT22;55052;52.056;5.296;2024-01-27T14:13:26;8.60;95.90
68235;DHT22;55052;52.056;5.296;2024-01-27T14:15:53;8.60;95.80
68235;DHT22;55052;52.056;5.296;2024-01-27T14:18:20;8.60;95.80
68235;DHT22;55052;52.056;5.296;2024-01-27T14:20:49;8.60;95.80
68235;DHT22;55052;52.056;5.296;2024-01-27T14:23:17;8.70;95.80
68235;DHT22;55052;52.056;5.296;2024-01-27T14:25:44;8.70;95.80
68235;DHT22;55052;52.056;5.296;2024-01-27T14:28:13;8.70;95.70
68235;DHT22;55052;52.056;5.296;2024-01-27T14:30:41;8.60;95.70
68235;DHT22;55052;52.056;5.296;2024-01-27T14:33:08;8.70;95.70
68235;DHT22;55052;52.056;5.296;2024-01-27T14:35:36;8.70;95.60
68235;DHT22;55052;52.056;5.296;2024-01-27T14:38:03;8.70;95.60
68235;DHT22;55052;52.056;5.296;2024-01-27T14:40:31;8.70;95.70
68235;DHT22;55052;52.056;5.296;2024-01-27T14:42:59;8.70;95.60
68235;DHT22;55052;52.056;5.296;2024-01-27T14:45:26;8.70;95.60
68235;DHT22;55052;52.056;5.296;2024-01-27T14:47:53;8.70;95.60
68235;DHT22;55052;52.056;5.296;2024-01-27T14:50:24;8.70;95.60
68235;DHT22;55052;52.056;5.296;2024-01-27T14:52:52;8.70;95.60
68235;DHT22;55052;52.056;5.296;2024-01-27T14:55:19;8.70;95.50
68235;DHT22;55052;52.056;5.296;2024-01-27T14:57:45;8.70;95.60
68235;DHT22;55052;52.056;5.296;2024-01-27T15:00:13;8.70;95.50
68235;DHT22;55052;52.056;5.296;2024-01-27T15:02:42;8.70;95.60
68235;DHT22;55052;52.056;5.296;2024-01-27T15:05:12;8.70;95.50
68235;DHT22;55052;52.056;5.296;2024-01-27T15:07:39;8.70;95.60
68235;DHT22;55052;52.056;5.296;2024-01-27T15:10:06;8.70;95.60
68235;DHT22;55052;52.056;5.296;2024-01-27T15:12:34;8.70;95.60
68235;DHT22;55052;52.056;5.296;2024-01-27T15:15:01;8.70;95.60
68235;DHT22;55052;52.056;5.296;2024-01-27T15:17:28;8.70;95.60
68235;DHT22;55052;52.056;5.296;2024-01-27T15:19:55;8.70;95.50
68235;DHT22;55052;52.056;5.296;2024-01-27T15:22:22;8.70;95.60
68235;DHT22;55052;52.056;5.296;2024-01-27T15:24:49;8.70;95.60
68235;DHT22;55052;52.056;5.296;2024-01-27T15:27:16;8.70;95.60
68235;DHT22;55052;52.056;5.296;2024-01-27T15:29:43;8.70;95.60
68235;DHT22;55052;52.056;5.296;2024-01-27T15:32:10;8.70;95.60
68235;DHT22;55052;52.056;5.296;2024-01-27T15:34:36;8.70;95.60
68235;DHT22;55052;52.056;5.296;2024-01-27T15:37:04;8.70;95.60
68235;DHT22;55052;52.056;5.296;2024-01-27T15:39:31;8.70;95.60
68235;DHT22;55052;52.056;5.296;2024-01-27T15:41:58;8.70;95.60
68235;DHT22;55052;52.056;5.296;2024-01-27T15:44:28;8.60;95.60
68235;DHT22;55052;52.056;5.296;2024-01-27T15:46:55;8.60;95.60
68235;DHT22;55052;52.056;5.296;2024-01-27T15:49:27;8.60;95.60